createdAt,value
2023-03-05T00:01:29.054Z,4.20
2023-03-05T00:03:57.261Z,4.30
2023-03-05T00:06:27.175Z,4.30
2023-03-05T00:08:55.057Z,4.20
2023-03-05T00:11:22.412Z,4.20
2023-03-05T00:13:52.495Z,4.20
2023-03-05T00:16:20.531Z,4.20
2023-03-05T00:18:47.712Z,4.20
2023-03-05T00:21:19.336Z,4.20
2023-03-05T00:23:46.284Z,4.20
2023-03-05T00:26:13.448Z,4.20
2023-03-05T00:28:41.092Z,4.20
2023-03-05T00:31:08.149Z,4.20
2023-03-05T00:33:35.092Z,4.20
2023-03-05T00:36:06.513Z,4.20
2023-03-05T00:38:34.378Z,4.10
2023-03-05T00:41:02.045Z,4.10
2023-03-05T00:43:29.804Z,4.10
2023-03-05T00:45:56.878Z,4.10
2023-03-05T00:48:23.907Z,4.10
2023-03-05T00:50:51.022Z,4.10
2023-03-05T00:53:17.990Z,4.10
2023-03-05T00:55:44.865Z,4.10
2023-03-05T00:58:11.883Z,4.10
2023-03-05T01:00:38.832Z,4.00
2023-03-05T01:03:06.194Z,4.00
2023-03-05T01:05:33.336Z,4.10
2023-03-05T01:08:00.509Z,4.10
2023-03-05T01:10:29.136Z,4.00
2023-03-05T01:12:57.343Z,4.10
2023-03-05T01:15:25.592Z,4.00
2023-03-05T01:17:52.881Z,4.00
2023-03-05T01:20:21.850Z,4.00
2023-03-05T01:22:49.205Z,4.00
2023-03-05T01:25:17.358Z,4.00
2023-03-05T01:27:44.450Z,4.00
2023-03-05T01:30:13.592Z,4.00
2023-03-05T01:32:40.844Z,4.00
2023-03-05T01:35:08.428Z,4.00
2023-03-05T01:37:35.433Z,4.00
2023-03-05T01:40:02.622Z,3.90
2023-03-05T01:42:29.564Z,4.00
2023-03-05T01:45:16.055Z,3.90
2023-03-05T01:47:43.934Z,3.90
2023-03-05T01:50:17.369Z,3.90
2023-03-05T01:52:50.376Z,3.90
2023-03-05T01:55:23.062Z,3.90
2023-03-05T01:58:03.836Z,3.90
2023-03-05T02:00:52.633Z,3.80
2023-03-05T02:03:20.633Z,3.80
2023-03-05T02:05:47.515Z,3.80
2023-03-05T02:08:18.224Z,3.80
2023-03-05T02:10:46.736Z,3.80
2023-03-05T02:13:25.368Z,3.80
2023-03-05T02:15:54.657Z,3.80
2023-03-05T02:18:22.597Z,3.80
2023-03-05T02:20:52.472Z,3.80
2023-03-05T02:23:22.277Z,3.80
2023-03-05T02:25:49.772Z,3.80
2023-03-05T02:28:23.064Z,3.80
2023-03-05T02:30:57.429Z,3.80
2023-03-05T02:33:24.495Z,3.80
2023-03-05T02:35:51.689Z,3.80
2023-03-05T02:38:21.437Z,3.80
2023-03-05T02:40:48.520Z,3.80
2023-03-05T02:43:17.106Z,3.80
2023-03-05T02:45:44.300Z,3.70
2023-03-05T02:48:11.498Z,3.70
2023-03-05T02:50:39.814Z,3.70
2023-03-05T02:53:07.110Z,3.70
2023-03-05T02:55:34.487Z,3.70
2023-03-05T02:58:01.538Z,3.70
2023-03-05T03:00:29.206Z,3.60
2023-03-05T03:02:56.353Z,3.70
2023-03-05T03:05:23.242Z,3.70
2023-03-05T03:07:51.121Z,3.70
2023-03-05T03:10:18.305Z,3.70
2023-03-05T03:12:45.759Z,3.70
2023-03-05T03:15:15.885Z,3.70
2023-03-05T03:17:43.376Z,3.70
2023-03-05T03:20:14.158Z,3.70
2023-03-05T03:22:42.394Z,3.70
2023-03-05T03:25:18.807Z,3.70
2023-03-05T03:27:46.153Z,3.60
2023-03-05T03:30:14.074Z,3.60
2023-03-05T03:32:41.040Z,3.60
2023-03-05T03:35:09.001Z,3.60
2023-03-05T03:37:36.145Z,3.60
2023-03-05T03:40:05.916Z,3.50
2023-03-05T03:42:33.388Z,3.50
2023-03-05T03:45:02.241Z,3.50
2023-03-05T03:47:30.539Z,3.40
2023-03-05T03:49:58.898Z,3.40
2023-03-05T03:52:26.532Z,3.50
2023-03-05T03:54:55.734Z,3.50
2023-03-05T03:57:22.786Z,3.50
2023-03-05T03:59:50.479Z,3.60
2023-03-05T04:02:17.916Z,3.60
2023-03-05T04:04:44.958Z,3.60
2023-03-05T04:07:11.913Z,3.60
2023-03-05T04:09:39.153Z,3.60
2023-03-05T04:12:06.401Z,3.60
2023-03-05T04:14:33.377Z,3.70
2023-03-05T04:17:00.453Z,3.70
2023-03-05T04:19:28.424Z,3.60
2023-03-05T04:21:55.311Z,3.70
2023-03-05T04:24:22.371Z,3.60
2023-03-05T04:26:49.358Z,3.60
2023-03-05T04:29:16.283Z,3.60
2023-03-05T04:31:43.487Z,3.60
2023-03-05T04:34:12.344Z,3.60
2023-03-05T04:36:39.231Z,3.60
2023-03-05T04:39:06.206Z,3.60
2023-03-05T04:41:33.230Z,3.60
2023-03-05T04:44:00.194Z,3.60
2023-03-05T04:46:27.097Z,3.50
2023-03-05T04:48:54.811Z,3.50
2023-03-05T04:51:21.717Z,3.50
2023-03-05T04:53:48.864Z,3.50
2023-03-05T04:56:15.816Z,3.40
2023-03-05T04:58:42.724Z,3.40
2023-03-05T05:01:09.742Z,3.30
2023-03-05T05:03:36.690Z,3.30
2023-03-05T05:06:03.738Z,3.30
2023-03-05T05:08:30.883Z,3.30
2023-03-05T05:11:02.155Z,3.30
2023-03-05T05:13:30.079Z,3.30
2023-03-05T05:15:57.481Z,3.30
2023-03-05T05:18:24.956Z,3.30
2023-03-05T05:20:51.968Z,3.30
2023-03-05T05:23:19.181Z,3.30
2023-03-05T05:25:46.124Z,3.30
2023-03-05T05:28:13.116Z,3.30
2023-03-05T05:30:40.040Z,3.30
2023-03-05T05:33:07.006Z,3.30
2023-03-05T05:35:33.995Z,3.20
2023-03-05T05:38:01.024Z,3.20
2023-03-05T05:40:27.958Z,3.20
2023-03-05T05:42:54.836Z,3.20
2023-03-05T05:45:21.892Z,3.20
2023-03-05T05:47:48.816Z,3.20
2023-03-05T05:50:16.491Z,3.20
2023-03-05T05:52:43.382Z,3.20
2023-03-05T05:55:11.037Z,3.10
2023-03-05T05:57:38.162Z,3.20
2023-03-05T06:00:07.846Z,3.20
2023-03-05T06:02:42.946Z,3.20
2023-03-05T06:05:13.543Z,3.20
2023-03-05T06:07:41.078Z,3.30
2023-03-05T06:10:09.319Z,3.20
2023-03-05T06:12:36.346Z,3.20
2023-03-05T06:15:03.429Z,3.20
2023-03-05T06:17:31.226Z,3.20
2023-03-05T06:19:59.223Z,3.20
2023-03-05T06:22:26.191Z,3.20
2023-03-05T06:24:53.207Z,3.20
2023-03-05T06:27:20.182Z,3.20
2023-03-05T06:29:47.180Z,3.20
2023-03-05T06:32:14.162Z,3.30
2023-03-05T06:34:41.030Z,3.30
2023-03-05T06:37:07.890Z,3.40
2023-03-05T06:39:34.811Z,3.30
2023-03-05T06:42:01.900Z,3.40
2023-03-05T06:44:28.857Z,3.40
2023-03-05T06:46:55.804Z,3.40
2023-03-05T06:49:22.690Z,3.50
2023-03-05T06:51:49.734Z,3.50
2023-03-05T06:54:17.543Z,3.50
2023-03-05T06:56:46.795Z,3.60
2023-03-05T06:59:15.957Z,3.60
2023-03-05T07:01:44.263Z,3.60
2023-03-05T07:04:12.903Z,3.60
2023-03-05T07:06:41.808Z,3.60
2023-03-05T07:09:13.039Z,3.70
2023-03-05T07:11:39.950Z,3.70
2023-03-05T07:14:06.867Z,3.70
2023-03-05T07:16:34.633Z,3.80
2023-03-05T07:19:03.927Z,3.90
2023-03-05T07:21:33.788Z,3.80
2023-03-05T07:24:02.029Z,3.90
2023-03-05T07:26:31.007Z,3.90
2023-03-05T07:28:58.053Z,3.90
2023-03-05T07:31:30.997Z,4.00
2023-03-05T07:33:59.545Z,4.00
2023-03-05T07:36:27.320Z,4.10
2023-03-05T07:38:54.471Z,4.10
2023-03-05T07:41:23.781Z,4.10
2023-03-05T07:43:53.139Z,4.00
2023-03-05T07:46:22.787Z,4.10
2023-03-05T07:48:49.937Z,4.20
2023-03-05T07:51:19.963Z,4.30
2023-03-05T07:53:48.766Z,4.20
2023-03-05T07:56:26.645Z,4.30
2023-03-05T07:58:53.773Z,4.50
2023-03-05T08:01:20.874Z,4.50
2023-03-05T08:03:47.796Z,4.50
2023-03-05T08:06:14.830Z,4.50
2023-03-05T08:08:42.063Z,4.50
2023-03-05T08:11:14.683Z,4.40
2023-03-05T08:13:42.606Z,4.40
2023-03-05T08:16:13.627Z,4.40
2023-03-05T08:18:40.764Z,4.40
2023-03-05T08:21:14.538Z,4.40
2023-03-05T08:23:41.535Z,4.40
2023-03-05T08:26:13.429Z,4.40
2023-03-05T08:28:40.375Z,4.40
2023-03-05T08:31:12.217Z,4.40
2023-03-05T08:33:39.613Z,4.30
2023-03-05T08:36:07.413Z,4.50
2023-03-05T08:38:34.679Z,4.50
2023-03-05T08:41:01.981Z,4.60
2023-03-05T08:43:29.089Z,4.70
2023-03-05T08:45:56.026Z,4.70
2023-03-05T08:48:23.275Z,4.90
2023-03-05T08:50:50.226Z,4.90
2023-03-05T08:53:19.763Z,4.90
2023-03-05T08:55:57.613Z,4.80
2023-03-05T08:58:25.201Z,4.60
2023-03-05T09:00:52.458Z,4.80
2023-03-05T09:03:19.557Z,4.90
2023-03-05T09:05:46.476Z,4.90
2023-03-05T09:08:13.376Z,4.90
2023-03-05T09:10:42.833Z,4.90
2023-03-05T09:13:10.667Z,4.80
2023-03-05T09:15:38.085Z,4.80
2023-03-05T09:18:05.273Z,4.80
2023-03-05T09:20:33.255Z,4.80
2023-03-05T09:23:05.694Z,4.70
2023-03-05T09:25:32.677Z,4.80
2023-03-05T09:27:59.774Z,4.90
2023-03-05T09:30:26.762Z,5.10
2023-03-05T09:32:53.870Z,5.30
2023-03-05T09:35:20.864Z,5.60
2023-03-05T09:37:47.792Z,5.90
2023-03-05T09:40:17.978Z,6.20
2023-03-05T09:42:47.908Z,6.60
2023-03-05T09:45:28.159Z,6.80
2023-03-05T09:47:57.915Z,7.00
2023-03-05T09:50:36.931Z,6.80
2023-03-05T09:53:16.074Z,6.70
2023-03-05T09:55:52.435Z,7.00
2023-03-05T09:58:39.449Z,7.60
2023-03-05T10:01:15.382Z,8.70
2023-03-05T10:03:59.558Z,9.70
2023-03-05T10:06:36.806Z,11.20
2023-03-05T10:09:10.344Z,12.20
2023-03-05T10:11:49.350Z,12.10
2023-03-05T10:14:25.135Z,11.60
2023-03-05T10:16:54.999Z,9.90
2023-03-05T10:19:40.034Z,9.00
2023-03-05T10:22:22.575Z,8.70
2023-03-05T10:25:17.096Z,9.60
2023-03-05T10:27:54.218Z,10.20
2023-03-05T10:30:54.799Z,11.00
2023-03-05T10:33:53.563Z,10.30
2023-03-05T10:36:26.550Z,8.90
2023-03-05T10:39:18.923Z,8.50
2023-03-05T10:42:20.353Z,8.10
2023-03-05T10:44:56.789Z,7.90
2023-03-05T10:47:46.974Z,7.40
2023-03-05T10:50:19.657Z,6.60
2023-03-05T10:52:52.148Z,6.20
2023-03-05T10:55:22.544Z,6.20
2023-03-05T10:57:49.714Z,6.30
2023-03-05T11:00:25.981Z,6.60
2023-03-05T11:02:56.712Z,7.10
2023-03-05T11:05:39.136Z,7.20
2023-03-05T11:08:24.140Z,7.10
2023-03-05T11:11:09.335Z,6.70
2023-03-05T11:13:58.080Z,6.50
2023-03-05T11:16:31.484Z,6.40
2023-03-05T11:19:17.559Z,6.40
2023-03-05T11:21:46.476Z,6.60
2023-03-05T11:24:18.348Z,7.00
2023-03-05T11:26:53.981Z,7.60
2023-03-05T11:29:32.693Z,8.20
2023-03-05T11:32:28.869Z,8.10
2023-03-05T11:34:57.495Z,7.80
2023-03-05T11:37:29.145Z,7.50
2023-03-05T11:40:18.524Z,6.80
2023-03-05T11:42:47.424Z,6.30
2023-03-05T11:45:19.472Z,6.10
2023-03-05T11:47:50.863Z,5.70
2023-03-05T11:50:22.935Z,5.50
2023-03-05T11:53:00.585Z,5.50
2023-03-05T11:55:32.947Z,5.70
2023-03-05T11:58:27.989Z,5.80
2023-03-05T12:00:55.842Z,5.90
2023-03-05T12:03:32.600Z,6.10
2023-03-05T12:06:15.606Z,5.90
2023-03-05T12:08:46.584Z,5.70
2023-03-05T12:11:25.610Z,5.40
2023-03-05T12:14:16.069Z,5.40
2023-03-05T12:16:50.738Z,5.40
2023-03-05T12:19:42.663Z,5.40
2023-03-05T12:22:23.186Z,5.40
2023-03-05T12:24:51.503Z,5.50
2023-03-05T12:27:38.016Z,5.60
2023-03-05T12:30:06.112Z,5.70
2023-03-05T12:32:33.430Z,5.80
2023-03-05T12:35:06.304Z,5.70
2023-03-05T12:37:33.204Z,6.00
2023-03-05T12:40:19.682Z,6.10
2023-03-05T12:42:48.338Z,6.40
2023-03-05T12:45:16.380Z,6.60
2023-03-05T12:47:47.858Z,7.10
2023-03-05T12:50:27.060Z,7.60
2023-03-05T12:53:20.117Z,8.20
2023-03-05T12:56:01.146Z,8.70
2023-03-05T12:58:53.559Z,8.90
2023-03-05T13:01:33.855Z,9.30
2023-03-05T13:04:10.506Z,9.40
2023-03-05T13:06:39.407Z,9.40
2023-03-05T13:09:23.205Z,9.60
2023-03-05T13:11:52.759Z,9.80
2023-03-05T13:14:31.221Z,9.90
2023-03-05T13:16:58.515Z,10.00
2023-03-05T13:19:25.667Z,10.10
2023-03-05T13:22:04.639Z,10.40
2023-03-05T13:24:32.099Z,10.20
2023-03-05T13:26:59.068Z,10.40
2023-03-05T13:29:31.249Z,10.30
2023-03-05T13:32:03.250Z,10.20
2023-03-05T13:34:46.706Z,10.10
2023-03-05T13:37:24.143Z,9.90
2023-03-05T13:39:56.670Z,10.00
2023-03-05T13:42:34.508Z,10.10
2023-03-05T13:45:20.699Z,10.10
2023-03-05T13:47:59.495Z,10.00
2023-03-05T13:50:28.168Z,10.00
2023-03-05T13:52:58.435Z,9.60
2023-03-05T13:55:26.354Z,9.60
2023-03-05T13:57:53.512Z,9.80
2023-03-05T14:00:33.958Z,9.80
2023-03-05T14:03:24.245Z,10.00
2023-03-05T14:05:51.404Z,10.10
2023-03-05T14:08:26.576Z,10.10
2023-03-05T14:10:57.080Z,9.90
2023-03-05T14:13:29.317Z,9.60
2023-03-05T14:16:24.544Z,9.40
2023-03-05T14:18:59.663Z,9.40
2023-03-05T14:21:41.968Z,9.50
2023-03-05T14:24:14.445Z,9.60
2023-03-05T14:26:50.097Z,9.60
2023-03-05T14:29:21.208Z,9.60
2023-03-05T14:31:57.613Z,9.50
2023-03-05T14:34:50.450Z,9.50
2023-03-05T14:37:26.516Z,9.30
2023-03-05T14:39:56.641Z,9.30
2023-03-05T14:42:27.007Z,9.40
2023-03-05T14:44:55.865Z,9.60
2023-03-05T14:47:24.259Z,9.50
2023-03-05T14:49:51.555Z,9.50
2023-03-05T14:52:21.075Z,9.50
2023-03-05T14:54:48.955Z,9.30
2023-03-05T14:57:21.134Z,9.20
2023-03-05T14:59:48.041Z,9.10
2023-03-05T15:02:20.824Z,9.00
2023-03-05T15:04:48.261Z,8.90
2023-03-05T15:07:42.207Z,8.80
2023-03-05T15:10:13.994Z,8.60
2023-03-05T15:12:40.928Z,8.50
2023-03-05T15:15:08.716Z,8.50
2023-03-05T15:17:36.785Z,8.40
2023-03-05T15:20:10.148Z,8.40
2023-03-05T15:22:37.683Z,8.40
2023-03-05T15:25:06.250Z,8.50
2023-03-05T15:27:33.380Z,8.40
2023-03-05T15:30:00.385Z,8.20
2023-03-05T15:32:30.255Z,8.10
2023-03-05T15:34:58.122Z,8.00
2023-03-05T15:37:26.220Z,8.00
2023-03-05T15:39:53.378Z,8.00
2023-03-05T15:42:20.355Z,7.90
2023-03-05T15:44:47.427Z,7.90
2023-03-05T15:47:14.517Z,7.80
2023-03-05T15:49:41.557Z,7.80
2023-03-05T15:52:08.762Z,7.80
2023-03-05T15:54:37.374Z,7.70
2023-03-05T15:57:09.522Z,7.60
2023-03-05T15:59:37.288Z,7.60
2023-03-05T16:02:04.431Z,7.50
2023-03-05T16:04:31.834Z,7.60
2023-03-05T16:07:03.159Z,7.60
2023-03-05T16:09:35.180Z,7.50
2023-03-05T16:12:04.217Z,7.40
2023-03-05T16:14:32.149Z,7.30
2023-03-05T16:17:01.037Z,7.20
2023-03-05T16:19:32.876Z,7.20
2023-03-05T16:22:00.144Z,7.10
2023-03-05T16:24:27.300Z,7.00
2023-03-05T16:26:54.664Z,6.90
2023-03-05T16:29:21.753Z,6.80
2023-03-05T16:31:48.814Z,6.80
2023-03-05T16:34:16.276Z,6.70
2023-03-05T16:36:52.686Z,6.60
2023-03-05T16:39:21.090Z,6.60
2023-03-05T16:41:48.518Z,6.50
2023-03-05T16:44:15.682Z,6.40
2023-03-05T16:46:49.141Z,6.40
2023-03-05T16:49:17.003Z,6.20
2023-03-05T16:51:44.372Z,6.10
2023-03-05T16:54:11.300Z,6.10
2023-03-05T16:56:38.694Z,6.00
2023-03-05T16:59:05.674Z,5.90
2023-03-05T17:01:32.714Z,5.80
2023-03-05T17:04:00.593Z,5.70
2023-03-05T17:06:30.090Z,5.60
2023-03-05T17:08:57.516Z,5.50
2023-03-05T17:11:25.823Z,5.40
2023-03-05T17:13:53.008Z,5.40
2023-03-05T17:16:20.886Z,5.40
2023-03-05T17:18:48.446Z,5.30
2023-03-05T17:21:15.895Z,5.30
2023-03-05T17:23:43.193Z,5.20
2023-03-05T17:26:13.777Z,5.00
2023-03-05T17:28:41.208Z,5.00
2023-03-05T17:31:08.667Z,4.80
2023-03-05T17:33:36.835Z,4.80
2023-03-05T17:36:04.884Z,4.70
2023-03-05T17:38:32.326Z,4.60
2023-03-05T17:40:59.273Z,4.60
2023-03-05T17:43:26.301Z,4.40
2023-03-05T17:45:53.252Z,4.30
2023-03-05T17:48:20.152Z,4.10
2023-03-05T17:50:49.015Z,4.10
2023-03-05T17:53:16.071Z,4.10
2023-03-05T17:55:42.994Z,4.20
2023-03-05T17:58:10.168Z,4.30
2023-03-05T18:00:37.646Z,4.40
2023-03-05T18:03:05.305Z,4.40
2023-03-05T18:05:32.572Z,4.30
2023-03-05T18:08:00.779Z,4.30
2023-03-05T18:10:27.949Z,4.20
2023-03-05T18:12:55.371Z,4.20
2023-03-05T18:15:24.781Z,4.20
2023-03-05T18:17:52.445Z,4.10
2023-03-05T18:20:32.479Z,4.10
2023-03-05T18:23:01.325Z,4.10
2023-03-05T18:25:31.334Z,4.10
2023-03-05T18:28:03.767Z,4.10
2023-03-05T18:30:31.338Z,4.10
2023-03-05T18:32:58.653Z,4.20
2023-03-05T18:35:26.154Z,4.20
2023-03-05T18:37:53.084Z,4.10
2023-03-05T18:40:22.973Z,4.20
2023-03-05T18:42:50.680Z,4.10
2023-03-05T18:45:20.150Z,4.00
2023-03-05T18:47:48.033Z,4.00
2023-03-05T18:50:18.578Z,3.90
2023-03-05T18:52:45.832Z,3.90
2023-03-05T18:55:24.266Z,3.90
2023-03-05T18:57:51.960Z,3.80
2023-03-05T19:00:22.230Z,3.80
2023-03-05T19:02:49.545Z,3.70
2023-03-05T19:05:17.868Z,3.70
2023-03-05T19:07:45.407Z,3.60
2023-03-05T19:10:14.010Z,3.60
2023-03-05T19:12:49.946Z,3.70
2023-03-05T19:15:17.532Z,3.70
2023-03-05T19:17:44.507Z,3.80
2023-03-05T19:20:13.563Z,3.90
2023-03-05T19:22:40.491Z,3.90
2023-03-05T19:25:11.863Z,3.90
2023-03-05T19:27:39.357Z,4.00
2023-03-05T19:30:07.009Z,4.00
2023-03-05T19:32:34.389Z,4.00
2023-03-05T19:35:01.946Z,4.00
2023-03-05T19:37:28.905Z,4.10
2023-03-05T19:39:55.796Z,4.00
2023-03-05T19:42:22.908Z,4.10
2023-03-05T19:44:50.193Z,4.10
2023-03-05T19:47:17.127Z,4.10
2023-03-05T19:49:44.084Z,4.10
2023-03-05T19:52:11.536Z,4.10
2023-03-05T19:54:38.481Z,4.10
2023-03-05T19:57:05.476Z,4.10
2023-03-05T19:59:32.549Z,4.20
2023-03-05T20:02:00.345Z,4.10
2023-03-05T20:04:28.142Z,4.10
2023-03-05T20:06:55.415Z,4.20
2023-03-05T20:09:29.105Z,4.20
2023-03-05T20:12:02.802Z,4.10
2023-03-05T20:14:39.515Z,4.30
2023-03-05T20:17:06.443Z,4.10
2023-03-05T20:19:33.689Z,4.10
2023-03-05T20:22:00.776Z,4.10
2023-03-05T20:24:27.764Z,4.10
2023-03-05T20:26:58.117Z,4.10
2023-03-05T20:29:30.461Z,4.10
2023-03-05T20:32:07.172Z,4.20
2023-03-05T20:34:34.352Z,4.20
2023-03-05T20:37:01.472Z,4.20
2023-03-05T20:39:28.519Z,4.10
2023-03-05T20:41:55.713Z,4.10
2023-03-05T20:44:25.729Z,4.20
2023-03-05T20:47:02.784Z,4.20
2023-03-05T20:49:30.311Z,4.20
2023-03-05T20:52:00.792Z,4.20
2023-03-05T20:54:28.195Z,4.20
2023-03-05T20:56:56.611Z,4.10
2023-03-05T20:59:26.006Z,4.10
2023-03-05T21:01:53.872Z,4.10
2023-03-05T21:04:20.815Z,4.10
2023-03-05T21:06:59.658Z,4.00
2023-03-05T21:09:29.014Z,4.10
2023-03-05T21:11:56.996Z,4.10
2023-03-05T21:14:29.871Z,4.20
2023-03-05T21:16:56.877Z,4.20
2023-03-05T21:19:23.820Z,4.10
2023-03-05T21:21:50.759Z,4.10
2023-03-05T21:24:19.974Z,4.10
2023-03-05T21:26:52.228Z,4.10
2023-03-05T21:29:19.400Z,4.10
2023-03-05T21:31:46.689Z,4.00
2023-03-05T21:34:14.618Z,4.00
2023-03-05T21:36:41.534Z,4.00
2023-03-05T21:39:08.506Z,4.00
2023-03-05T21:41:35.400Z,4.00
2023-03-05T21:44:07.034Z,3.90
2023-03-05T21:46:37.607Z,3.90
2023-03-05T21:49:04.920Z,3.90
2023-03-05T21:51:38.880Z,3.80
2023-03-05T21:54:06.238Z,3.80
2023-03-05T21:56:33.625Z,3.90
2023-03-05T21:59:01.191Z,3.90
2023-03-05T22:01:28.324Z,3.80
2023-03-05T22:03:55.274Z,3.80
2023-03-05T22:06:22.551Z,3.80
2023-03-05T22:08:51.816Z,3.80
2023-03-05T22:11:21.003Z,3.80
2023-03-05T22:13:48.549Z,3.80
2023-03-05T22:16:30.298Z,3.80
2023-03-05T22:19:01.417Z,3.80
2023-03-05T22:21:30.219Z,3.80
2023-03-05T22:23:59.533Z,3.80
2023-03-05T22:26:35.564Z,3.80
2023-03-05T22:29:06.604Z,3.70
2023-03-05T22:31:34.402Z,3.80
2023-03-05T22:34:01.342Z,3.80
2023-03-05T22:36:28.214Z,3.70
2023-03-05T22:38:55.345Z,3.70
2023-03-05T22:41:22.438Z,3.70
2023-03-05T22:43:50.601Z,3.70
2023-03-05T22:46:19.023Z,3.70
2023-03-05T22:48:47.192Z,3.70
2023-03-05T22:51:14.950Z,3.70
2023-03-05T22:53:42.421Z,3.70
2023-03-05T22:56:18.494Z,3.70
2023-03-05T22:58:45.611Z,3.70
2023-03-05T23:01:30.531Z,3.70
2023-03-05T23:04:07.109Z,3.70
2023-03-05T23:06:34.202Z,3.60
2023-03-05T23:09:01.251Z,3.60
2023-03-05T23:11:28.194Z,3.50
2023-03-05T23:13:55.103Z,3.60
2023-03-05T23:16:22.055Z,3.60
2023-03-05T23:18:48.969Z,3.60
2023-03-05T23:21:15.861Z,3.60
2023-03-05T23:23:42.824Z,3.60
2023-03-05T23:26:10.020Z,3.60
2023-03-05T23:28:36.959Z,3.60
2023-03-05T23:31:04.326Z,3.60
2023-03-05T23:33:31.284Z,3.60
2023-03-05T23:36:01.215Z,3.60
2023-03-05T23:38:30.521Z,3.60
2023-03-05T23:41:01.097Z,3.60
2023-03-05T23:43:28.721Z,3.60
2023-03-05T23:45:56.165Z,3.60
2023-03-05T23:48:24.883Z,3.50
2023-03-05T23:50:52.219Z,3.60
2023-03-05T23:53:25.286Z,3.60
2023-03-05T23:55:52.308Z,3.60
2023-03-05T23:58:22.974Z,3.60
